Portada
METAR-TAF:

METAR-TAF

Aeroports :

Ouargla, Algèria

latitud: 31-55N, longitud: 005-24E, altitud: 141 m

Observació

L'informe es va fer fa 17 minuts, a les 10:00 UTC
Vent 8 kt del Sud/Sud-Oest
Temperatura 42°C
Pressió 1011 hPa
Visibilitat: 8000 m

METAR: DAUU 051000Z 21008KT 8000 NSC 42/// Q1011

Hora: 11:17 (10:17 UTC)

Pronòstic

L'informe es va fer fa 2 hores i 17 minuts, a les 08:00 UTC
Pronòstic vàlid del 05 a les 09 UTC al 05 a les 18 UTC
Vent 10 kt del Sud-Oest
Visibilitat 10 km o més
sense núvols per sota de 1500 mi sense presència de cumulonimbus.

TAF: DAUU 050800Z 0509/0518 22010KT CAVOK

Observacions i pronòstics meteorològics de més de 4000 aeroports (METAR i TAF).

Les estacions disponibles són els punts grocs i vermells al mapa.

Posi el ratolí al punt desitjat per veure el nom de l'estació.

Feu clic per veure les observacions i els pronòstics meteorològics.

Per canviar el mapa: feu clic els botons verds amb una creu de color negre per apropar; al botó verd amb un guió per allunyar la imatge; o en les fletxes verdes per a mapes adjacents.


METAR-TAF: